sensor_id;sensor_type;location;lat;lon;timestamp;temperature;humidity
13433;DHT22;6789;47.678;9.158;2022-11-15T00:00:21;8.10;99.90
13433;DHT22;6789;47.678;9.158;2022-11-15T00:05:13;8.00;99.90
13433;DHT22;6789;47.678;9.158;2022-11-15T00:10:05;8.00;99.90
13433;DHT22;6789;47.678;9.158;2022-11-15T00:14:57;7.90;99.90
13433;DHT22;6789;47.678;9.158;2022-11-15T00:19:49;7.90;99.90
13433;DHT22;6789;47.678;9.158;2022-11-15T00:24:40;8.00;99.90
13433;DHT22;6789;47.678;9.158;2022-11-15T00:29:32;8.00;99.90
13433;DHT22;6789;47.678;9.158;2022-11-15T00:34:24;8.00;99.90
13433;DHT22;6789;47.678;9.158;2022-11-15T00:39:15;8.00;99.90
13433;DHT22;6789;47.678;9.158;2022-11-15T00:44:07;8.00;99.90
13433;DHT22;6789;47.678;9.158;2022-11-15T00:48:59;8.10;99.90
13433;DHT22;6789;47.678;9.158;2022-11-15T00:53:51;8.10;99.90
13433;DHT22;6789;47.678;9.158;2022-11-15T00:58:42;8.10;99.90
13433;DHT22;6789;47.678;9.158;2022-11-15T01:03:35;8.00;99.90
13433;DHT22;6789;47.678;9.158;2022-11-15T01:08:27;8.00;99.90
13433;DHT22;6789;47.678;9.158;2022-11-15T01:13:19;7.90;99.90
13433;DHT22;6789;47.678;9.158;2022-11-15T01:18:11;8.00;99.90
13433;DHT22;6789;47.678;9.158;2022-11-15T01:23:02;8.00;99.90
13433;DHT22;6789;47.678;9.158;2022-11-15T01:27:54;7.90;99.90
13433;DHT22;6789;47.678;9.158;2022-11-15T01:32:46;7.90;99.90
13433;DHT22;6789;47.678;9.158;2022-11-15T01:37:38;7.80;99.90
13433;DHT22;6789;47.678;9.158;2022-11-15T01:42:29;7.70;99.90
13433;DHT22;6789;47.678;9.158;2022-11-15T01:47:34;7.70;99.90
13433;DHT22;6789;47.678;9.158;2022-11-15T01:52:33;7.70;99.90
13433;DHT22;6789;47.678;9.158;2022-11-15T01:57:27;7.70;99.90
13433;DHT22;6789;47.678;9.158;2022-11-15T02:02:19;7.60;99.90
13433;DHT22;6789;47.678;9.158;2022-11-15T02:07:15;7.50;99.90
13433;DHT22;6789;47.678;9.158;2022-11-15T02:12:10;7.40;99.90
13433;DHT22;6789;47.678;9.158;2022-11-15T02:22:24;7.30;99.90
13433;DHT22;6789;47.678;9.158;2022-11-15T02:37:58;7.00;99.90
13433;DHT22;6789;47.678;9.158;2022-11-15T02:43:02;6.90;99.90
13433;DHT22;6789;47.678;9.158;2022-11-15T02:48:18;7.00;99.90
13433;DHT22;6789;47.678;9.158;2022-11-15T02:53:14;6.90;99.90
13433;DHT22;6789;47.678;9.158;2022-11-15T02:58:19;7.00;99.90
13433;DHT22;6789;47.678;9.158;2022-11-15T03:09:05;7.10;99.90
13433;DHT22;6789;47.678;9.158;2022-11-15T03:14:21;7.20;99.90
13433;DHT22;6789;47.678;9.158;2022-11-15T03:19:30;7.20;99.90
13433;DHT22;6789;47.678;9.158;2022-11-15T03:24:31;7.10;99.90
13433;DHT22;6789;47.678;9.158;2022-11-15T03:29:49;7.20;99.90
13433;DHT22;6789;47.678;9.158;2022-11-15T03:34:50;7.20;99.90
13433;DHT22;6789;47.678;9.158;2022-11-15T03:39:45;7.20;99.90
13433;DHT22;6789;47.678;9.158;2022-11-15T03:49:57;7.20;99.90
13433;DHT22;6789;47.678;9.158;2022-11-15T03:54:55;7.30;99.90
13433;DHT22;6789;47.678;9.158;2022-11-15T03:59:48;7.30;99.90
13433;DHT22;6789;47.678;9.158;2022-11-15T04:04:40;7.40;99.90
13433;DHT22;6789;47.678;9.158;2022-11-15T04:09:31;7.40;99.90
13433;DHT22;6789;47.678;9.158;2022-11-15T04:14:23;7.40;99.90
13433;DHT22;6789;47.678;9.158;2022-11-15T04:19:15;7.40;99.90
13433;DHT22;6789;47.678;9.158;2022-11-15T04:24:25;7.40;99.90
13433;DHT22;6789;47.678;9.158;2022-11-15T04:29:17;7.50;99.90
13433;DHT22;6789;47.678;9.158;2022-11-15T04:34:26;7.40;99.90
13433;DHT22;6789;47.678;9.158;2022-11-15T04:39:18;7.20;99.90
13433;DHT22;6789;47.678;9.158;2022-11-15T04:44:10;7.30;99.90
13433;DHT22;6789;47.678;9.158;2022-11-15T04:49:01;7.30;99.90
13433;DHT22;6789;47.678;9.158;2022-11-15T04:53:53;7.30;99.90
13433;DHT22;6789;47.678;9.158;2022-11-15T04:58:45;7.30;99.90
13433;DHT22;6789;47.678;9.158;2022-11-15T05:03:42;7.20;99.90
13433;DHT22;6789;47.678;9.158;2022-11-15T05:09:07;7.20;99.90
13433;DHT22;6789;47.678;9.158;2022-11-15T05:14:18;7.20;99.90
13433;DHT22;6789;47.678;9.158;2022-11-15T05:25:48;7.10;99.90
13433;DHT22;6789;47.678;9.158;2022-11-15T05:31:04;7.10;99.90
13433;DHT22;6789;47.678;9.158;2022-11-15T05:36:43;7.10;99.90
13433;DHT22;6789;47.678;9.158;2022-11-15T05:41:59;7.10;99.90
13433;DHT22;6789;47.678;9.158;2022-11-15T05:47:15;7.10;99.90
13433;DHT22;6789;47.678;9.158;2022-11-15T05:52:27;7.20;99.90
13433;DHT22;6789;47.678;9.158;2022-11-15T05:57:36;7.20;99.90
13433;DHT22;6789;47.678;9.158;2022-11-15T06:02:43;7.30;99.90
13433;DHT22;6789;47.678;9.158;2022-11-15T06:07:57;7.30;99.90
13433;DHT22;6789;47.678;9.158;2022-11-15T06:13:05;7.30;99.90
13433;DHT22;6789;47.678;9.158;2022-11-15T06:18:12;7.40;99.90
13433;DHT22;6789;47.678;9.158;2022-11-15T06:23:18;7.40;99.90
13433;DHT22;6789;47.678;9.158;2022-11-15T06:28:23;7.40;99.90
13433;DHT22;6789;47.678;9.158;2022-11-15T06:33:32;7.30;99.90
13433;DHT22;6789;47.678;9.158;2022-11-15T06:38:38;7.40;99.90
13433;DHT22;6789;47.678;9.158;2022-11-15T06:43:45;7.40;99.90
13433;DHT22;6789;47.678;9.158;2022-11-15T06:49:07;7.50;99.90
13433;DHT22;6789;47.678;9.158;2022-11-15T06:54:12;7.60;99.90
13433;DHT22;6789;47.678;9.158;2022-11-15T06:59:18;7.60;99.90
13433;DHT22;6789;47.678;9.158;2022-11-15T07:04:24;7.60;99.90
13433;DHT22;6789;47.678;9.158;2022-11-15T07:09:32;7.70;99.90
13433;DHT22;6789;47.678;9.158;2022-11-15T07:14:38;7.80;99.90
13433;DHT22;6789;47.678;9.158;2022-11-15T07:19:43;7.90;99.90
13433;DHT22;6789;47.678;9.158;2022-11-15T07:24:49;7.90;99.90
13433;DHT22;6789;47.678;9.158;2022-11-15T07:29:58;8.00;99.90
13433;DHT22;6789;47.678;9.158;2022-11-15T07:35:10;8.10;99.90
13433;DHT22;6789;47.678;9.158;2022-11-15T07:40:17;8.20;99.90
13433;DHT22;6789;47.678;9.158;2022-11-15T07:45:50;8.20;99.90
13433;DHT22;6789;47.678;9.158;2022-11-15T07:51:19;8.20;99.90
13433;DHT22;6789;47.678;9.158;2022-11-15T07:56:30;8.30;99.90
13433;DHT22;6789;47.678;9.158;2022-11-15T08:02:02;8.40;99.90
13433;DHT22;6789;47.678;9.158;2022-11-15T08:07:09;8.50;99.90
13433;DHT22;6789;47.678;9.158;2022-11-15T08:12:15;8.50;99.90
13433;DHT22;6789;47.678;9.158;2022-11-15T08:17:23;8.50;99.90
13433;DHT22;6789;47.678;9.158;2022-11-15T08:22:29;8.60;99.90
13433;DHT22;6789;47.678;9.158;2022-11-15T08:27:36;8.60;99.90
13433;DHT22;6789;47.678;9.158;2022-11-15T08:32:48;8.50;99.90
13433;DHT22;6789;47.678;9.158;2022-11-15T08:37:55;8.40;99.90
13433;DHT22;6789;47.678;9.158;2022-11-15T08:43:03;8.50;99.90
13433;DHT22;6789;47.678;9.158;2022-11-15T08:48:09;8.50;99.90
13433;DHT22;6789;47.678;9.158;2022-11-15T08:53:15;8.50;99.90
13433;DHT22;6789;47.678;9.158;2022-11-15T08:58:22;8.70;99.90
13433;DHT22;6789;47.678;9.158;2022-11-15T09:03:28;8.80;99.90
13433;DHT22;6789;47.678;9.158;2022-11-15T09:08:35;9.00;99.90
13433;DHT22;6789;47.678;9.158;2022-11-15T09:13:44;8.80;99.90
13433;DHT22;6789;47.678;9.158;2022-11-15T09:18:54;9.00;99.90
13433;DHT22;6789;47.678;9.158;2022-11-15T09:24:00;9.00;99.90
13433;DHT22;6789;47.678;9.158;2022-11-15T09:29:06;8.90;99.90
13433;DHT22;6789;47.678;9.158;2022-11-15T09:34:14;8.90;99.90
13433;DHT22;6789;47.678;9.158;2022-11-15T09:39:47;9.00;99.90
13433;DHT22;6789;47.678;9.158;2022-11-15T09:50:46;9.00;99.90
13433;DHT22;6789;47.678;9.158;2022-11-15T09:56:02;9.10;99.90
13433;DHT22;6789;47.678;9.158;2022-11-15T10:01:30;9.40;99.90
13433;DHT22;6789;47.678;9.158;2022-11-15T10:12:27;9.70;99.90
13433;DHT22;6789;47.678;9.158;2022-11-15T10:23:25;9.90;99.90
13433;DHT22;6789;47.678;9.158;2022-11-15T10:28:37;9.90;99.90
13433;DHT22;6789;47.678;9.158;2022-11-15T10:33:43;9.70;99.90
13433;DHT22;6789;47.678;9.158;2022-11-15T10:54:27;9.60;99.90
13433;DHT22;6789;47.678;9.158;2022-11-15T10:59:36;9.50;99.90
13433;DHT22;6789;47.678;9.158;2022-11-15T11:04:51;9.70;99.90
13433;DHT22;6789;47.678;9.158;2022-11-15T11:10:19;9.70;99.90
13433;DHT22;6789;47.678;9.158;2022-11-15T11:15:31;9.60;99.90
13433;DHT22;6789;47.678;9.158;2022-11-15T11:20:51;9.70;99.90
13433;DHT22;6789;47.678;9.158;2022-11-15T11:49:47;10.20;99.90
13433;DHT22;6789;47.678;9.158;2022-11-15T11:55:43;10.30;99.90
13433;DHT22;6789;47.678;9.158;2022-11-15T12:01:43;10.30;99.90
13433;DHT22;6789;47.678;9.158;2022-11-15T12:07:12;10.20;99.90
13433;DHT22;6789;47.678;9.158;2022-11-15T12:13:03;10.40;99.90
13433;DHT22;6789;47.678;9.158;2022-11-15T12:18:17;10.40;99.90
13433;DHT22;6789;47.678;9.158;2022-11-15T12:23:32;10.60;99.90
13433;DHT22;6789;47.678;9.158;2022-11-15T12:28:55;10.70;99.90
13433;DHT22;6789;47.678;9.158;2022-11-15T12:34:37;10.80;99.90
13433;DHT22;6789;47.678;9.158;2022-11-15T12:52:23;10.60;99.90
13433;DHT22;6789;47.678;9.158;2022-11-15T12:57:39;10.40;99.90
13433;DHT22;6789;47.678;9.158;2022-11-15T13:02:46;10.50;99.90
13433;DHT22;6789;47.678;9.158;2022-11-15T13:08:34;10.60;99.90
13433;DHT22;6789;47.678;9.158;2022-11-15T13:13:44;10.50;99.90
13433;DHT22;6789;47.678;9.158;2022-11-15T13:18:54;10.60;99.90
13433;DHT22;6789;47.678;9.158;2022-11-15T13:24:01;10.60;99.90
13433;DHT22;6789;47.678;9.158;2022-11-15T13:29:16;10.60;99.90
13433;DHT22;6789;47.678;9.158;2022-11-15T13:34:29;10.50;99.90
13433;DHT22;6789;47.678;9.158;2022-11-15T13:45:38;10.50;99.90
13433;DHT22;6789;47.678;9.158;2022-11-15T13:50:45;10.40;99.90
13433;DHT22;6789;47.678;9.158;2022-11-15T13:55:53;10.50;99.90
13433;DHT22;6789;47.678;9.158;2022-11-15T14:01:17;10.60;99.90
13433;DHT22;6789;47.678;9.158;2022-11-15T14:06:28;10.50;99.90
13433;DHT22;6789;47.678;9.158;2022-11-15T14:11:36;10.40;99.90
13433;DHT22;6789;47.678;9.158;2022-11-15T14:17:03;10.40;99.90
13433;DHT22;6789;47.678;9.158;2022-11-15T14:22:37;10.30;99.90
13433;DHT22;6789;47.678;9.158;2022-11-15T14:33:54;10.20;99.90
13433;DHT22;6789;47.678;9.158;2022-11-15T14:39:03;10.30;99.90
13433;DHT22;6789;47.678;9.158;2022-11-15T14:44:10;10.20;99.90
13433;DHT22;6789;47.678;9.158;2022-11-15T14:49:33;10.10;99.90
13433;DHT22;6789;47.678;9.158;2022-11-15T14:54:40;10.00;99.90
13433;DHT22;6789;47.678;9.158;2022-11-15T14:59:56;10.00;99.90
13433;DHT22;6789;47.678;9.158;2022-11-15T15:10:31;10.00;99.90
13433;DHT22;6789;47.678;9.158;2022-11-15T15:15:49;10.00;99.90
13433;DHT22;6789;47.678;9.158;2022-11-15T15:20:58;10.10;99.90
13433;DHT22;6789;47.678;9.158;2022-11-15T15:26:09;10.10;99.90
13433;DHT22;6789;47.678;9.158;2022-11-15T15:31:19;10.10;99.90
13433;DHT22;6789;47.678;9.158;2022-11-15T15:37:19;10.20;99.90
13433;DHT22;6789;47.678;9.158;2022-11-15T15:42:59;10.10;99.90
13433;DHT22;6789;47.678;9.158;2022-11-15T15:48:35;10.30;99.90
13433;DHT22;6789;47.678;9.158;2022-11-15T15:54:07;10.20;99.90
13433;DHT22;6789;47.678;9.158;2022-11-15T16:00:22;10.20;99.90
13433;DHT22;6789;47.678;9.158;2022-11-15T16:06:52;10.10;99.90
13433;DHT22;6789;47.678;9.158;2022-11-15T16:12:37;10.10;99.90
13433;DHT22;6789;47.678;9.158;2022-11-15T16:17:57;10.00;99.90
13433;DHT22;6789;47.678;9.158;2022-11-15T16:23:12;9.90;99.90
13433;DHT22;6789;47.678;9.158;2022-11-15T16:29:09;9.90;99.90
13433;DHT22;6789;47.678;9.158;2022-11-15T16:35:02;9.90;99.90
13433;DHT22;6789;47.678;9.158;2022-11-15T16:40:45;9.90;99.90
13433;DHT22;6789;47.678;9.158;2022-11-15T16:46:41;9.90;99.90
13433;DHT22;6789;47.678;9.158;2022-11-15T16:52:05;10.00;99.90
13433;DHT22;6789;47.678;9.158;2022-11-15T16:57:56;10.00;99.90
13433;DHT22;6789;47.678;9.158;2022-11-15T17:41:49;9.90;99.90
13433;DHT22;6789;47.678;9.158;2022-11-15T17:47:03;9.80;99.90
13433;DHT22;6789;47.678;9.158;2022-11-15T17:52:11;9.70;99.90
13433;DHT22;6789;47.678;9.158;2022-11-15T17:58:14;9.80;99.90
13433;DHT22;6789;47.678;9.158;2022-11-15T18:03:38;9.80;99.90
13433;DHT22;6789;47.678;9.158;2022-11-15T18:16:47;10.00;99.90
13433;DHT22;6789;47.678;9.158;2022-11-15T18:22:51;10.00;99.90
13433;DHT22;6789;47.678;9.158;2022-11-15T18:28:31;10.00;99.90
13433;DHT22;6789;47.678;9.158;2022-11-15T18:34:08;10.10;99.90
13433;DHT22;6789;47.678;9.158;2022-11-15T18:40:01;10.00;99.90
13433;DHT22;6789;47.678;9.158;2022-11-15T18:46:06;10.00;99.90
13433;DHT22;6789;47.678;9.158;2022-11-15T18:51:33;10.10;99.90
13433;DHT22;6789;47.678;9.158;2022-11-15T18:57:26;10.00;99.90
13433;DHT22;6789;47.678;9.158;2022-11-15T19:02:44;10.00;99.90
13433;DHT22;6789;47.678;9.158;2022-11-15T19:08:24;10.00;99.90
13433;DHT22;6789;47.678;9.158;2022-11-15T19:20:34;9.90;99.90
13433;DHT22;6789;47.678;9.158;2022-11-15T19:26:14;9.80;99.90
13433;DHT22;6789;47.678;9.158;2022-11-15T19:31:40;9.90;99.90
13433;DHT22;6789;47.678;9.158;2022-11-15T19:37:08;9.90;99.90
13433;DHT22;6789;47.678;9.158;2022-11-15T19:43:05;9.90;99.90
13433;DHT22;6789;47.678;9.158;2022-11-15T19:48:42;9.80;99.90
13433;DHT22;6789;47.678;9.158;2022-11-15T19:54:06;9.80;99.90
13433;DHT22;6789;47.678;9.158;2022-11-15T19:59:20;9.80;99.90
13433;DHT22;6789;47.678;9.158;2022-11-15T20:04:40;9.60;99.90
13433;DHT22;6789;47.678;9.158;2022-11-15T20:09:52;9.60;99.90
13433;DHT22;6789;47.678;9.158;2022-11-15T20:15:13;9.50;99.90
13433;DHT22;6789;47.678;9.158;2022-11-15T20:20:25;9.50;99.90
13433;DHT22;6789;47.678;9.158;2022-11-15T20:25:46;9.40;99.90
13433;DHT22;6789;47.678;9.158;2022-11-15T20:31:45;9.40;99.90
13433;DHT22;6789;47.678;9.158;2022-11-15T20:37:17;9.40;99.90
13433;DHT22;6789;47.678;9.158;2022-11-15T20:42:54;9.40;99.90
13433;DHT22;6789;47.678;9.158;2022-11-15T20:53:29;9.40;99.90
13433;DHT22;6789;47.678;9.158;2022-11-15T20:58:53;9.40;99.90
13433;DHT22;6789;47.678;9.158;2022-11-15T21:04:33;9.50;99.90
13433;DHT22;6789;47.678;9.158;2022-11-15T21:09:50;9.50;99.90
13433;DHT22;6789;47.678;9.158;2022-11-15T21:15:40;9.50;99.90
13433;DHT22;6789;47.678;9.158;2022-11-15T21:21:22;9.60;99.90
13433;DHT22;6789;47.678;9.158;2022-11-15T21:26:45;9.60;99.90
13433;DHT22;6789;47.678;9.158;2022-11-15T21:32:05;9.60;99.90
13433;DHT22;6789;47.678;9.158;2022-11-15T21:38:24;9.60;99.90
13433;DHT22;6789;47.678;9.158;2022-11-15T21:43:58;9.60;99.90
13433;DHT22;6789;47.678;9.158;2022-11-15T21:49:32;9.60;99.90
13433;DHT22;6789;47.678;9.158;2022-11-15T22:02:38;9.70;99.90
13433;DHT22;6789;47.678;9.158;2022-11-15T22:08:09;9.70;99.90
13433;DHT22;6789;47.678;9.158;2022-11-15T22:13:48;9.80;99.90
13433;DHT22;6789;47.678;9.158;2022-11-15T22:19:27;9.90;99.90
13433;DHT22;6789;47.678;9.158;2022-11-15T22:24:44;10.00;99.90
13433;DHT22;6789;47.678;9.158;2022-11-15T22:30:12;10.10;99.90
13433;DHT22;6789;47.678;9.158;2022-11-15T22:35:37;10.10;99.90
13433;DHT22;6789;47.678;9.158;2022-11-15T22:40:56;10.10;99.90
13433;DHT22;6789;47.678;9.158;2022-11-15T22:46:25;10.10;99.90
13433;DHT22;6789;47.678;9.158;2022-11-15T22:51:58;10.10;99.90
13433;DHT22;6789;47.678;9.158;2022-11-15T22:57:26;10.10;99.90
13433;DHT22;6789;47.678;9.158;2022-11-15T23:02:55;10.00;99.90
13433;DHT22;6789;47.678;9.158;2022-11-15T23:07:53;10.00;99.90
13433;DHT22;6789;47.678;9.158;2022-11-15T23:13:05;9.90;99.90
13433;DHT22;6789;47.678;9.158;2022-11-15T23:18:22;9.90;99.90
13433;DHT22;6789;47.678;9.158;2022-11-15T23:23:41;9.90;99.90
13433;DHT22;6789;47.678;9.158;2022-11-15T23:29:34;10.00;99.90
13433;DHT22;6789;47.678;9.158;2022-11-15T23:35:14;10.00;99.90
13433;DHT22;6789;47.678;9.158;2022-11-15T23:40:32;10.00;99.90
13433;DHT22;6789;47.678;9.158;2022-11-15T23:45:42;9.80;99.90
13433;DHT22;6789;47.678;9.158;2022-11-15T23:51:08;9.90;99.90
13433;DHT22;6789;47.678;9.158;2022-11-15T23:56:22;9.90;99.90
